This is the latest recevied weather packets stored in our database for station/object KF4KUL. If no packets are shown the sender has not sent any weather packets the latest 1 day(s).
| Time | Temp. | Humidity | Pressure | Rain* | Wind** | Luminosity | Snow |
|---|---|---|---|---|---|---|---|
| 1836274194 | 22.78° C | 86% | 1016.2 hPa | 0 mm | 0 m/s | - | - |
| 1778053769 | 18.89° C | 89% | 1015.2 hPa | 0 mm | 0 m/s | - | - |
| 1778052868 | 19.44° C | 89% | 1015.2 hPa | 0 mm | 0 m/s | - | - |
| 1778051967 | 19.44° C | 89% | 1015.3 hPa | 0 mm | 0 m/s | - | - |
| 1778051066 | 19.44° C | 88% | 1015.3 hPa | 0 mm | 0 m/s | - | - |
| 1778050165 | 20° C | 88% | 1015.7 hPa | 0 mm | 0 m/s | - | - |
| 1778049264 | 20° C | 88% | 1015.6 hPa | 0 mm | 0 m/s | - | - |
| 1778048363 | 20° C | 87% | 1015.7 hPa | 0 mm | 0 m/s | - | - |
| 1778047462 | 20° C | 87% | 1016 hPa | 0 mm | 0 m/s | - | - |
| 1778046561 | 20° C | 86% | 1016.1 hPa | 0 mm | 0 m/s | - | - |
| 1778045660 | 20.56° C | 86% | 1016.1 hPa | 0 mm | 0 m/s | - | - |
| 1778044759 | 20.56° C | 86% | 1016 hPa | 0 mm | 0 m/s | - | - |
| 1778043858 | 20.56° C | 85% | 1016.2 hPa | 0 mm | 0 m/s | - | - |
| 1778042957 | 20.56° C | 85% | 1016.4 hPa | 0 mm | 0 m/s | - | - |
| 1778042056 | 21.11° C | 84% | 1016.4 hPa | 0 mm | 0 m/s | - | - |
| 1778041155 | 21.11° C | 83% | 1016.6 hPa | 0 mm | 0 m/s | - | - |
| 1778040254 | 21.67° C | 84% | 1016.4 hPa | 0 mm | 0 m/s | - | - |
| 1778039353 | 21.67° C | 85% | 1016.1 hPa | 0 mm | 0 m/s | - | - |
| 1778038452 | 21.67° C | 86% | 1016.1 hPa | 0 mm | 0 m/s | - | - |
| 1778037551 | 21.67° C | 85% | 1016.1 hPa | 0 mm | 0 m/s | - | - |
| 1778036650 | 22.22° C | 85% | 1015.8 hPa | 0 mm | 0 m/s | - | - |
| 1778035749 | 22.22° C | 85% | 1016 hPa | 0 mm | 0 m/s | - | - |
| 1778034848 | 22.22° C | 85% | 1015.7 hPa | 0 mm | 0 m/s | - | - |
| 1778033947 | 22.78° C | 83% | 1015.6 hPa | 0 mm | 0 m/s | - | - |
| 1778033046 | 23.33° C | 81% | 1015.3 hPa | 0 mm | 0 m/s | - | - |
* Rain latest hour (hover to see other rain measurements)
** Current wind speed in m/s (hover to see current wind gust speed)